createdAt,value
2018-03-28T00:00:08.260Z,982.49
2018-03-28T00:01:08.438Z,982.50
2018-03-28T00:02:08.621Z,982.48
2018-03-28T00:03:08.793Z,982.46
2018-03-28T00:04:08.974Z,982.49
2018-03-28T00:05:09.150Z,982.47
2018-03-28T00:06:09.332Z,982.43
2018-03-28T00:07:09.516Z,982.41
2018-03-28T00:08:09.694Z,982.42
2018-03-28T00:09:09.872Z,982.41
2018-03-28T00:10:10.052Z,982.39
2018-03-28T00:11:10.226Z,982.37
2018-03-28T00:12:10.403Z,982.38
2018-03-28T00:13:10.577Z,982.38
2018-03-28T00:14:10.756Z,982.39
2018-03-28T00:15:10.940Z,982.42
2018-03-28T00:16:11.123Z,982.41
2018-03-28T00:17:11.304Z,982.40
2018-03-28T00:18:11.478Z,982.39
2018-03-28T00:19:11.661Z,982.39
2018-03-28T00:20:11.836Z,982.36
2018-03-28T00:21:12.009Z,982.30
2018-03-28T00:22:12.187Z,982.33
2018-03-28T00:23:12.363Z,982.31
2018-03-28T00:24:12.551Z,982.27
2018-03-28T00:25:12.726Z,982.23
2018-03-28T00:26:12.907Z,982.22
2018-03-28T00:27:13.086Z,982.24
2018-03-28T00:28:13.265Z,982.18
2018-03-28T00:29:13.447Z,982.16
2018-03-28T00:30:13.633Z,982.11
2018-03-28T00:31:13.811Z,982.13
2018-03-28T00:32:13.990Z,982.12
2018-03-28T00:33:14.170Z,982.14
2018-03-28T00:34:14.345Z,982.10
2018-03-28T00:35:14.524Z,982.11
2018-03-28T00:36:14.705Z,982.11
2018-03-28T00:37:14.879Z,982.13
2018-03-28T00:38:15.050Z,982.06
2018-03-28T00:39:15.225Z,982.09
2018-03-28T00:40:15.408Z,982.09
2018-03-28T00:41:15.587Z,982.08
2018-03-28T00:42:15.774Z,982.07
2018-03-28T00:43:16.384Z,982.13
2018-03-28T00:44:16.496Z,982.11
2018-03-28T00:45:16.761Z,982.13
2018-03-28T00:46:16.921Z,982.11
2018-03-28T00:47:16.931Z,982.13
2018-03-28T00:48:17.174Z,982.09
2018-03-28T00:49:21.508Z,982.09
2018-03-28T00:50:20.551Z,982.12
2018-03-28T00:51:20.638Z,982.11
2018-03-28T00:52:17.750Z,982.07
2018-03-28T00:53:17.947Z,982.02
2018-03-28T00:54:18.202Z,982.02
2018-03-28T00:55:18.296Z,981.98
2018-03-28T00:56:18.538Z,981.98
2018-03-28T00:57:18.652Z,981.94
2018-03-28T00:58:18.783Z,981.91
2018-03-28T00:59:18.968Z,981.86
2018-03-28T01:00:19.115Z,981.91
2018-03-28T01:01:19.757Z,981.91
2018-03-28T01:02:19.452Z,981.88
2018-03-28T01:03:19.665Z,981.90
2018-03-28T01:04:25.943Z,981.89
2018-03-28T01:05:19.881Z,981.88
2018-03-28T01:06:20.307Z,981.85
2018-03-28T01:07:20.383Z,981.86
2018-03-28T01:08:20.519Z,981.81
2018-03-28T01:09:20.528Z,981.81
2018-03-28T01:10:20.709Z,981.78
2018-03-28T01:11:20.741Z,981.74
2018-03-28T01:12:20.891Z,981.75
2018-03-28T01:13:20.979Z,981.72
2018-03-28T01:14:21.295Z,981.73
2018-03-28T01:15:21.678Z,981.70
2018-03-28T01:16:21.856Z,981.69
2018-03-28T01:17:21.917Z,981.68
2018-03-28T01:18:22.252Z,981.70
2018-03-28T01:19:22.530Z,981.67
2018-03-28T01:20:22.416Z,981.69
2018-03-28T01:21:22.713Z,981.65
2018-03-28T01:22:22.671Z,981.64
2018-03-28T01:23:22.894Z,981.60
2018-03-28T01:24:23.244Z,981.60
2018-03-28T01:25:23.397Z,981.52
2018-03-28T01:26:23.492Z,981.56
2018-03-28T01:27:23.551Z,981.55
2018-03-28T01:28:23.698Z,981.54
2018-03-28T01:29:23.939Z,981.55
2018-03-28T01:30:24.169Z,981.55
2018-03-28T01:31:24.161Z,981.50
2018-03-28T01:32:24.327Z,981.53
2018-03-28T01:33:24.453Z,981.50
2018-03-28T01:34:24.597Z,981.48
2018-03-28T01:35:24.975Z,981.47
2018-03-28T01:36:25.093Z,981.44
2018-03-28T01:37:25.210Z,981.40
2018-03-28T01:38:25.374Z,981.44
2018-03-28T01:39:25.605Z,981.39
2018-03-28T01:40:25.685Z,981.43
2018-03-28T01:41:25.924Z,981.40
2018-03-28T01:42:29.483Z,981.42
2018-03-28T01:43:26.808Z,981.39
2018-03-28T01:44:26.322Z,981.40
2018-03-28T01:45:26.593Z,981.39
2018-03-28T01:46:26.680Z,981.39
2018-03-28T01:47:29.822Z,981.34
2018-03-28T01:48:27.319Z,981.38
2018-03-28T01:49:27.203Z,981.39
2018-03-28T01:50:30.974Z,981.39
2018-03-28T01:51:27.613Z,981.32
2018-03-28T01:52:27.728Z,981.32
2018-03-28T01:53:27.845Z,981.31
2018-03-28T01:54:27.989Z,981.29
2018-03-28T01:55:27.907Z,981.31
2018-03-28T01:56:28.226Z,981.29
2018-03-28T01:57:28.266Z,981.32
2018-03-28T01:58:28.410Z,981.29
2018-03-28T01:59:28.348Z,981.28
2018-03-28T02:00:28.523Z,981.26
2018-03-28T02:01:28.698Z,981.29
2018-03-28T02:02:28.871Z,981.25
2018-03-28T02:03:29.053Z,981.26
2018-03-28T02:04:29.238Z,981.24
2018-03-28T02:05:29.417Z,981.24
2018-03-28T02:06:29.591Z,981.27
2018-03-28T02:07:29.772Z,981.20
2018-03-28T02:08:29.947Z,981.22
2018-03-28T02:09:30.126Z,981.21
2018-03-28T02:10:30.303Z,981.19
2018-03-28T02:11:30.478Z,981.19
2018-03-28T02:12:30.660Z,981.16
2018-03-28T02:13:30.837Z,981.18
2018-03-28T02:14:31.013Z,981.17
2018-03-28T02:15:31.197Z,981.15
2018-03-28T02:16:31.366Z,981.18
2018-03-28T02:17:31.547Z,981.18
2018-03-28T02:18:31.721Z,981.18
2018-03-28T02:19:31.902Z,981.17
2018-03-28T02:20:32.077Z,981.17
2018-03-28T02:21:32.247Z,981.20
2018-03-28T02:22:32.428Z,981.20
2018-03-28T02:23:32.605Z,981.18
2018-03-28T02:24:32.782Z,981.20
2018-03-28T02:25:32.957Z,981.20
2018-03-28T02:26:33.130Z,981.23
2018-03-28T02:27:33.310Z,981.16
2018-03-28T02:28:33.484Z,981.18
2018-03-28T02:29:33.664Z,981.12
2018-03-28T02:30:33.841Z,981.15
2018-03-28T02:31:34.015Z,981.13
2018-03-28T02:32:34.224Z,981.08
2018-03-28T02:33:34.399Z,981.09
2018-03-28T02:34:34.576Z,981.09
2018-03-28T02:35:34.749Z,981.12
2018-03-28T02:36:34.935Z,981.12
2018-03-28T02:37:35.100Z,981.10
2018-03-28T02:38:35.279Z,981.10
2018-03-28T02:39:35.458Z,981.14
2018-03-28T02:40:35.642Z,981.11
2018-03-28T02:41:35.872Z,981.12
2018-03-28T02:42:36.055Z,981.10
2018-03-28T02:43:36.118Z,981.13
2018-03-28T02:44:36.290Z,981.11
2018-03-28T02:45:36.460Z,981.10
2018-03-28T02:46:36.650Z,981.09
2018-03-28T02:47:36.829Z,981.04
2018-03-28T02:48:37.004Z,981.03
2018-03-28T02:49:37.190Z,981.05
2018-03-28T02:50:37.373Z,981.01
2018-03-28T02:51:37.545Z,981.02
2018-03-28T02:52:37.716Z,981.01
2018-03-28T02:53:37.896Z,981.01
2018-03-28T02:54:38.075Z,981.05
2018-03-28T02:55:38.257Z,981.06
2018-03-28T02:56:38.434Z,981.02
2018-03-28T02:57:38.615Z,981.08
2018-03-28T02:58:38.796Z,981.12
2018-03-28T02:59:38.983Z,981.03
2018-03-28T03:00:39.159Z,981.03
2018-03-28T03:01:39.332Z,981.04
2018-03-28T03:02:39.508Z,981.02
2018-03-28T03:03:39.685Z,981.02
2018-03-28T03:04:39.861Z,981.01
2018-03-28T03:05:40.033Z,981.01
2018-03-28T03:06:40.205Z,981.02
2018-03-28T03:07:40.374Z,981.03
2018-03-28T03:08:40.556Z,980.99
2018-03-28T03:09:40.736Z,980.98
2018-03-28T03:10:40.915Z,980.98
2018-03-28T03:11:41.091Z,981.04
2018-03-28T03:12:41.271Z,981.01
2018-03-28T03:13:41.505Z,980.99
2018-03-28T03:14:41.632Z,980.97
2018-03-28T03:15:41.807Z,980.98
2018-03-28T03:16:41.990Z,980.95
2018-03-28T03:17:42.165Z,980.96
2018-03-28T03:18:42.341Z,981.01
2018-03-28T03:19:42.518Z,980.99
2018-03-28T03:20:42.698Z,980.99
2018-03-28T03:21:42.870Z,980.96
2018-03-28T03:22:43.050Z,980.96
2018-03-28T03:23:43.221Z,980.94
2018-03-28T03:24:43.399Z,980.93
2018-03-28T03:25:43.577Z,980.84
2018-03-28T03:26:43.780Z,980.88
2018-03-28T03:27:43.933Z,980.88
2018-03-28T03:28:44.117Z,980.88
2018-03-28T03:29:44.295Z,980.87
2018-03-28T03:30:44.482Z,980.87
2018-03-28T03:31:44.653Z,980.89
2018-03-28T03:32:44.825Z,980.89
2018-03-28T03:33:45.002Z,980.88
2018-03-28T03:34:45.183Z,980.90
2018-03-28T03:35:45.363Z,980.95
2018-03-28T03:36:45.554Z,980.94
2018-03-28T03:37:45.736Z,980.94
2018-03-28T03:38:45.916Z,980.92
2018-03-28T03:39:46.089Z,980.90
2018-03-28T03:40:46.267Z,980.90
2018-03-28T03:41:46.450Z,980.90
2018-03-28T03:42:46.622Z,980.88
2018-03-28T03:43:46.800Z,980.81
2018-03-28T03:44:46.979Z,980.84
2018-03-28T03:45:47.157Z,980.86
2018-03-28T03:46:47.341Z,980.85
2018-03-28T03:47:47.513Z,980.85
2018-03-28T03:48:47.691Z,980.86
2018-03-28T03:49:47.871Z,980.87
2018-03-28T03:50:48.044Z,980.84
2018-03-28T03:51:48.218Z,980.82
2018-03-28T03:52:48.400Z,980.80
2018-03-28T03:53:48.581Z,980.83
2018-03-28T03:54:48.752Z,980.83
2018-03-28T03:55:48.929Z,980.86
2018-03-28T03:56:49.106Z,980.90
2018-03-28T03:57:49.279Z,980.90
2018-03-28T03:58:49.504Z,980.90
2018-03-28T03:59:49.635Z,980.91
2018-03-28T04:00:49.811Z,980.89
2018-03-28T04:01:49.993Z,980.90
2018-03-28T04:02:50.177Z,980.92
2018-03-28T04:03:50.350Z,980.87
2018-03-28T04:04:50.524Z,980.88
2018-03-28T04:05:50.712Z,980.88
2018-03-28T04:06:50.884Z,980.87
2018-03-28T04:07:51.097Z,980.89
2018-03-28T04:08:51.274Z,980.83
2018-03-28T04:09:51.499Z,980.90
2018-03-28T04:10:51.554Z,980.90
2018-03-28T04:11:51.730Z,980.90
2018-03-28T04:12:51.908Z,980.88
2018-03-28T04:13:52.095Z,980.91
2018-03-28T04:14:52.269Z,980.89
2018-03-28T04:15:52.446Z,980.88
2018-03-28T04:16:52.631Z,980.91
2018-03-28T04:17:52.809Z,980.87
2018-03-28T04:18:52.980Z,980.90
2018-03-28T04:19:53.156Z,980.90
2018-03-28T04:20:53.340Z,980.91
2018-03-28T04:21:53.514Z,980.89
2018-03-28T04:22:53.693Z,980.87
2018-03-28T04:23:53.876Z,980.87
2018-03-28T04:24:54.052Z,980.87
2018-03-28T04:25:54.221Z,980.87
2018-03-28T04:26:54.396Z,980.86
2018-03-28T04:27:54.577Z,980.90
2018-03-28T04:28:54.758Z,980.83
2018-03-28T04:29:54.925Z,980.83
2018-03-28T04:30:55.149Z,980.79
2018-03-28T04:31:55.277Z,980.82
2018-03-28T04:32:55.453Z,980.80
2018-03-28T04:33:55.629Z,980.84
2018-03-28T04:34:55.810Z,980.88
2018-03-28T04:35:55.985Z,980.85
2018-03-28T04:36:56.163Z,980.86
2018-03-28T04:37:56.341Z,980.85
2018-03-28T04:38:56.518Z,980.82
2018-03-28T04:39:59.941Z,980.85
2018-03-28T04:41:00.608Z,980.85
2018-03-28T04:42:01.783Z,980.83
2018-03-28T04:43:01.709Z,980.81
2018-03-28T04:44:01.197Z,980.85
2018-03-28T04:45:02.121Z,980.85
2018-03-28T04:45:59.839Z,980.82
2018-03-28T04:47:01.032Z,980.85
2018-03-28T04:48:00.086Z,980.88
2018-03-28T04:49:00.345Z,980.83
2018-03-28T04:50:01.044Z,980.82
2018-03-28T04:51:02.061Z,980.84
2018-03-28T04:52:00.728Z,980.82
2018-03-28T04:53:01.029Z,980.82
2018-03-28T04:54:00.935Z,980.85
2018-03-28T04:55:02.606Z,980.81
2018-03-28T04:56:01.546Z,980.78
2018-03-28T04:57:00.238Z,980.80
2018-03-28T04:58:00.486Z,980.81
2018-03-28T04:59:01.533Z,980.80
2018-03-28T05:00:02.597Z,980.77
2018-03-28T05:01:02.714Z,980.82
2018-03-28T05:02:02.151Z,980.82
2018-03-28T05:03:01.448Z,980.80
2018-03-28T05:04:02.291Z,980.78
2018-03-28T05:05:03.595Z,980.75
2018-03-28T05:06:02.919Z,980.77
2018-03-28T05:07:03.549Z,980.76
2018-03-28T05:08:02.864Z,980.75
2018-03-28T05:09:03.243Z,980.79
2018-03-28T05:10:02.881Z,980.71
2018-03-28T05:11:04.320Z,980.73
2018-03-28T05:12:03.843Z,980.74
2018-03-28T05:13:04.692Z,980.76
2018-03-28T05:14:03.350Z,980.76
2018-03-28T05:15:04.607Z,980.73
2018-03-28T05:16:03.520Z,980.73
2018-03-28T05:17:04.370Z,980.71
2018-03-28T05:18:04.422Z,980.71
2018-03-28T05:19:05.001Z,980.69
2018-03-28T05:20:05.171Z,980.70
2018-03-28T05:21:05.089Z,980.70
2018-03-28T05:22:04.878Z,980.75
2018-03-28T05:23:04.863Z,980.70
2018-03-28T05:24:04.546Z,980.68
2018-03-28T05:25:05.668Z,980.69
2018-03-28T05:26:05.975Z,980.69
2018-03-28T05:27:05.444Z,980.70
2018-03-28T05:28:05.583Z,980.66
2018-03-28T05:29:06.401Z,980.65
2018-03-28T05:30:06.787Z,980.67
2018-03-28T05:31:07.394Z,980.68
2018-03-28T05:32:05.579Z,980.67
2018-03-28T05:33:07.074Z,980.67
2018-03-28T05:34:06.392Z,980.68
2018-03-28T05:35:06.491Z,980.65
2018-03-28T05:36:07.188Z,980.66
2018-03-28T05:37:06.521Z,980.67
2018-03-28T05:38:06.399Z,980.67
2018-03-28T05:39:06.023Z,980.68
2018-03-28T05:40:06.207Z,980.71
2018-03-28T05:41:06.383Z,980.73
2018-03-28T05:42:06.575Z,980.69
2018-03-28T05:43:06.762Z,980.68
2018-03-28T05:44:06.940Z,980.72
2018-03-28T05:45:07.113Z,980.70
2018-03-28T05:46:07.301Z,980.72
2018-03-28T05:47:07.478Z,980.70
2018-03-28T05:48:07.668Z,980.72
2018-03-28T05:49:07.853Z,980.73
2018-03-28T05:50:08.067Z,980.72
2018-03-28T05:51:08.247Z,980.72
2018-03-28T05:52:08.444Z,980.69
2018-03-28T05:53:08.621Z,980.66
2018-03-28T05:54:08.800Z,980.69
2018-03-28T05:55:09.005Z,980.67
2018-03-28T05:56:09.164Z,980.65
2018-03-28T05:57:09.338Z,980.63
2018-03-28T05:58:09.510Z,980.67
2018-03-28T05:59:09.703Z,980.67
2018-03-28T06:00:09.872Z,980.65
2018-03-28T06:01:10.065Z,980.66
2018-03-28T06:02:10.238Z,980.62
2018-03-28T06:03:10.416Z,980.65
2018-03-28T06:04:10.612Z,980.65
2018-03-28T06:05:10.796Z,980.64
2018-03-28T06:06:10.980Z,980.61
2018-03-28T06:07:11.151Z,980.64
2018-03-28T06:08:11.339Z,980.62
2018-03-28T06:09:11.517Z,980.62
2018-03-28T06:10:11.693Z,980.59
2018-03-28T06:11:11.889Z,980.61
2018-03-28T06:12:12.066Z,980.58
2018-03-28T06:13:12.254Z,980.55
2018-03-28T06:14:12.427Z,980.54
2018-03-28T06:15:12.612Z,980.59
2018-03-28T06:16:12.791Z,980.55
2018-03-28T06:17:12.966Z,980.59
2018-03-28T06:18:13.143Z,980.63
2018-03-28T06:19:13.312Z,980.60
2018-03-28T06:20:13.536Z,980.58
2018-03-28T06:21:13.721Z,980.56
2018-03-28T06:22:13.893Z,980.54
2018-03-28T06:23:14.073Z,980.56
2018-03-28T06:24:14.315Z,980.57
2018-03-28T06:25:14.449Z,980.61
2018-03-28T06:26:14.626Z,980.63
2018-03-28T06:27:14.815Z,980.61
2018-03-28T06:28:15.000Z,980.59
2018-03-28T06:29:15.175Z,980.60
2018-03-28T06:30:15.351Z,980.60
2018-03-28T06:31:15.528Z,980.61
2018-03-28T06:32:15.698Z,980.61
2018-03-28T06:33:15.910Z,980.62
2018-03-28T06:34:16.092Z,980.58
2018-03-28T06:35:16.272Z,980.61
2018-03-28T06:36:16.462Z,980.62
2018-03-28T06:37:16.654Z,980.59
2018-03-28T06:38:16.831Z,980.59
2018-03-28T06:39:17.034Z,980.58
2018-03-28T06:40:19.505Z,980.58
2018-03-28T06:41:21.102Z,980.59
2018-03-28T06:42:19.559Z,980.59
2018-03-28T06:43:18.610Z,980.58
2018-03-28T06:44:21.674Z,980.60
2018-03-28T06:45:22.002Z,980.60
2018-03-28T06:46:19.753Z,980.54
2018-03-28T06:47:20.634Z,980.56
2018-03-28T06:48:22.106Z,980.55
2018-03-28T06:49:21.704Z,980.56
2018-03-28T06:50:20.895Z,980.56
2018-03-28T06:51:20.255Z,980.54
2018-03-28T06:52:21.042Z,980.51
2018-03-28T06:53:20.391Z,980.52
2018-03-28T06:54:20.215Z,980.50
2018-03-28T06:55:21.078Z,980.51
2018-03-28T06:56:19.936Z,980.50
2018-03-28T06:57:21.926Z,980.47
2018-03-28T06:58:21.254Z,980.43
2018-03-28T06:59:20.512Z,980.45
2018-03-28T07:00:21.239Z,980.49
2018-03-28T07:01:21.898Z,980.49
2018-03-28T07:02:23.802Z,980.48
2018-03-28T07:03:23.552Z,980.49
2018-03-28T07:04:22.063Z,980.49
2018-03-28T07:05:21.534Z,980.47
2018-03-28T07:06:21.713Z,980.50
2018-03-28T07:07:21.896Z,980.50
2018-03-28T07:08:23.939Z,980.49
2018-03-28T07:09:23.400Z,980.44
2018-03-28T07:10:24.123Z,980.44
2018-03-28T07:11:27.317Z,980.41
2018-03-28T07:12:23.770Z,980.44
2018-03-28T07:13:23.803Z,980.44
2018-03-28T07:14:25.021Z,980.46
2018-03-28T07:15:25.440Z,980.43
2018-03-28T07:16:25.787Z,980.46
2018-03-28T07:17:26.968Z,980.44
2018-03-28T07:18:24.565Z,980.47
2018-03-28T07:19:25.423Z,980.47
2018-03-28T07:20:25.045Z,980.44
2018-03-28T07:21:25.353Z,980.45
2018-03-28T07:22:26.372Z,980.43
2018-03-28T07:23:26.590Z,980.42
2018-03-28T07:24:25.848Z,980.41
2018-03-28T07:25:26.274Z,980.38
2018-03-28T07:26:26.833Z,980.38
2018-03-28T07:27:26.070Z,980.38
2018-03-28T07:28:27.920Z,980.38
2018-03-28T07:29:26.832Z,980.38
2018-03-28T07:30:28.131Z,980.39
2018-03-28T07:31:25.757Z,980.37
2018-03-28T07:32:28.005Z,980.38
2018-03-28T07:33:27.794Z,980.36
2018-03-28T07:34:29.685Z,980.35
2018-03-28T07:35:26.435Z,980.37
2018-03-28T07:36:26.608Z,980.41
2018-03-28T07:37:26.787Z,980.36
2018-03-28T07:38:26.976Z,980.37
2018-03-28T07:39:27.156Z,980.40
2018-03-28T07:40:27.349Z,980.35
2018-03-28T07:41:27.557Z,980.34
2018-03-28T07:42:27.750Z,980.35
2018-03-28T07:43:28.323Z,980.34
2018-03-28T07:44:28.139Z,980.36
2018-03-28T07:45:28.562Z,980.36
2018-03-28T07:46:28.661Z,980.38
2018-03-28T07:47:28.970Z,980.39
2018-03-28T07:48:28.729Z,980.38
2018-03-28T07:49:29.772Z,980.39
2018-03-28T07:50:30.203Z,980.41
2018-03-28T07:51:30.745Z,980.40
2018-03-28T07:52:30.076Z,980.40
2018-03-28T07:53:31.111Z,980.43
2018-03-28T07:54:30.514Z,980.43
2018-03-28T07:55:31.201Z,980.40
2018-03-28T07:56:31.461Z,980.41
2018-03-28T07:57:31.068Z,980.42
2018-03-28T07:58:32.551Z,980.41
2018-03-28T07:59:32.106Z,980.41
2018-03-28T08:00:31.753Z,980.40
2018-03-28T08:01:31.890Z,980.40
2018-03-28T08:02:33.273Z,980.40
2018-03-28T08:03:32.930Z,980.37
2018-03-28T08:04:33.563Z,980.40
2018-03-28T08:05:32.722Z,980.39
2018-03-28T08:06:32.718Z,980.37
2018-03-28T08:07:35.263Z,980.40
2018-03-28T08:08:33.012Z,980.36
2018-03-28T08:09:32.868Z,980.39
2018-03-28T08:10:32.432Z,980.36
2018-03-28T08:11:34.819Z,980.36
2018-03-28T08:12:32.673Z,980.39
2018-03-28T08:13:32.850Z,980.41
2018-03-28T08:14:33.046Z,980.40
2018-03-28T08:15:33.219Z,980.44
2018-03-28T08:16:36.402Z,980.37
2018-03-28T08:17:33.553Z,980.44
2018-03-28T08:18:33.736Z,980.44
2018-03-28T08:19:34.022Z,980.45
2018-03-28T08:20:34.214Z,980.45
2018-03-28T08:21:34.309Z,980.44
2018-03-28T08:22:34.492Z,980.41
2018-03-28T08:23:34.678Z,980.39
2018-03-28T08:24:34.865Z,980.35
2018-03-28T08:25:35.080Z,980.37
2018-03-28T08:26:35.246Z,980.38
2018-03-28T08:27:35.488Z,980.40
2018-03-28T08:28:35.545Z,980.39
2018-03-28T08:29:35.731Z,980.42
2018-03-28T08:30:35.924Z,980.41
2018-03-28T08:31:39.876Z,980.42
2018-03-28T08:32:36.263Z,980.41
2018-03-28T08:33:36.433Z,980.39
2018-03-28T08:34:36.619Z,980.37
2018-03-28T08:35:36.800Z,980.42
2018-03-28T08:36:37.023Z,980.40
2018-03-28T08:37:37.196Z,980.40
2018-03-28T08:38:38.683Z,980.39
2018-03-28T08:39:37.958Z,980.35
2018-03-28T08:40:38.705Z,980.36
2018-03-28T08:41:38.388Z,980.40
2018-03-28T08:42:38.016Z,980.38
2018-03-28T08:43:38.209Z,980.37
2018-03-28T08:44:38.407Z,980.37
2018-03-28T08:45:38.579Z,980.38
2018-03-28T08:46:38.789Z,980.39
2018-03-28T08:47:38.960Z,980.42
2018-03-28T08:48:39.139Z,980.43
2018-03-28T08:49:39.333Z,980.43
2018-03-28T08:50:39.522Z,980.40
2018-03-28T08:51:39.703Z,980.44
2018-03-28T08:52:43.503Z,980.38
2018-03-28T08:53:40.006Z,980.38
2018-03-28T08:54:40.182Z,980.37
2018-03-28T08:55:40.374Z,980.42
2018-03-28T08:56:42.553Z,980.42
2018-03-28T08:57:41.867Z,980.45
2018-03-28T08:58:43.573Z,980.42
2018-03-28T08:59:41.578Z,980.43
2018-03-28T09:00:41.295Z,980.42
2018-03-28T09:01:41.929Z,980.43
2018-03-28T09:02:41.601Z,980.43
2018-03-28T09:03:41.778Z,980.41
2018-03-28T09:04:41.959Z,980.40
2018-03-28T09:05:42.142Z,980.36
2018-03-28T09:06:42.441Z,980.46
2018-03-28T09:07:42.499Z,980.44
2018-03-28T09:08:42.676Z,980.42
2018-03-28T09:09:42.859Z,980.42
2018-03-28T09:10:43.034Z,980.40
2018-03-28T09:11:43.219Z,980.40
2018-03-28T09:12:43.396Z,980.36
2018-03-28T09:13:43.592Z,980.31
2018-03-28T09:14:43.780Z,980.33
2018-03-28T09:15:44.326Z,980.27
2018-03-28T09:16:44.175Z,980.25
2018-03-28T09:17:44.330Z,980.30
2018-03-28T09:18:44.503Z,980.30
2018-03-28T09:19:44.692Z,980.28
2018-03-28T09:20:44.872Z,980.24
2018-03-28T09:21:45.056Z,980.26
2018-03-28T09:22:45.228Z,980.28
2018-03-28T09:23:45.425Z,980.30
2018-03-28T09:24:45.611Z,980.27
2018-03-28T09:25:45.793Z,980.27
2018-03-28T09:26:45.981Z,980.28
2018-03-28T09:27:46.157Z,980.32
2018-03-28T09:28:46.336Z,980.26
2018-03-28T09:29:49.047Z,980.27
2018-03-28T09:30:48.581Z,980.26
2018-03-28T09:31:48.415Z,980.26
2018-03-28T09:32:47.106Z,980.27
2018-03-28T09:33:47.286Z,980.27
2018-03-28T09:34:49.936Z,980.26
2018-03-28T09:35:51.798Z,980.22
2018-03-28T09:36:48.799Z,980.23
2018-03-28T09:37:48.021Z,980.24
2018-03-28T09:38:48.211Z,980.22
2018-03-28T09:39:48.393Z,980.24
2018-03-28T09:40:48.580Z,980.27
2018-03-28T09:41:50.429Z,980.25
2018-03-28T09:42:49.758Z,980.24
2018-03-28T09:43:50.122Z,980.24
2018-03-28T09:44:50.103Z,980.23
2018-03-28T09:45:49.550Z,980.20
2018-03-28T09:46:49.732Z,980.19
2018-03-28T09:47:49.919Z,980.17
2018-03-28T09:48:50.287Z,980.15
2018-03-28T09:49:50.281Z,980.17
2018-03-28T09:50:50.553Z,980.17
2018-03-28T09:51:50.691Z,980.16
2018-03-28T09:52:50.925Z,980.17
2018-03-28T09:53:51.107Z,980.20
2018-03-28T09:54:51.315Z,980.18
2018-03-28T09:55:51.469Z,980.20
2018-03-28T09:56:52.230Z,980.20
2018-03-28T09:57:53.120Z,980.19
2018-03-28T09:58:52.251Z,980.19
2018-03-28T09:59:52.888Z,980.23
2018-03-28T10:00:53.677Z,980.21
2018-03-28T10:01:53.460Z,980.21
2018-03-28T10:02:55.048Z,980.25
2018-03-28T10:03:53.702Z,980.24
2018-03-28T10:04:54.281Z,980.21
2018-03-28T10:05:54.425Z,980.21
2018-03-28T10:06:53.099Z,980.18
2018-03-28T10:07:53.370Z,980.17
2018-03-28T10:08:56.455Z,980.17
2018-03-28T10:09:55.769Z,980.14
2018-03-28T10:10:55.125Z,980.13
2018-03-28T10:11:55.223Z,980.15
2018-03-28T10:12:55.151Z,980.14
2018-03-28T10:13:56.031Z,980.13
2018-03-28T10:14:57.427Z,980.18
2018-03-28T10:15:56.850Z,980.17
2018-03-28T10:16:57.582Z,980.14
2018-03-28T10:17:56.732Z,980.15
2018-03-28T10:18:57.862Z,980.17
2018-03-28T10:19:56.874Z,980.14
2018-03-28T10:20:56.962Z,980.15
2018-03-28T10:21:57.281Z,980.15
2018-03-28T10:22:56.173Z,980.16
2018-03-28T10:23:58.042Z,980.18
2018-03-28T10:24:58.292Z,980.20
2018-03-28T10:25:58.255Z,980.18
2018-03-28T10:26:58.190Z,980.17
2018-03-28T10:27:59.422Z,980.12
2018-03-28T10:28:58.316Z,980.16
2018-03-28T10:29:58.085Z,980.14
2018-03-28T10:30:58.258Z,980.17
2018-03-28T10:31:58.935Z,980.13
2018-03-28T10:32:57.945Z,980.11
2018-03-28T10:34:00.951Z,980.10
2018-03-28T10:35:00.065Z,980.16
2018-03-28T10:35:59.904Z,980.12
2018-03-28T10:36:58.938Z,980.07
2018-03-28T10:38:01.004Z,980.04
2018-03-28T10:39:01.023Z,980.07
2018-03-28T10:40:00.100Z,980.06
2018-03-28T10:40:58.875Z,980.08
2018-03-28T10:41:59.074Z,980.07
2018-03-28T10:43:01.539Z,980.02
2018-03-28T10:43:59.426Z,980.03
2018-03-28T10:44:59.602Z,979.97
2018-03-28T10:45:59.796Z,979.96
2018-03-28T10:46:59.971Z,979.92
2018-03-28T10:48:00.165Z,979.91
2018-03-28T10:49:00.351Z,979.92
2018-03-28T10:50:00.530Z,979.89
2018-03-28T10:51:00.716Z,979.86
2018-03-28T10:52:00.899Z,979.86
2018-03-28T10:53:01.080Z,979.88
2018-03-28T10:54:02.026Z,979.88
2018-03-28T10:55:01.447Z,979.85
2018-03-28T10:56:01.632Z,979.79
2018-03-28T10:57:01.811Z,979.80
2018-03-28T10:58:01.992Z,979.80
2018-03-28T10:59:02.271Z,979.81
2018-03-28T11:00:02.345Z,979.84
2018-03-28T11:01:02.553Z,979.82
2018-03-28T11:02:02.722Z,979.84
2018-03-28T11:03:02.923Z,979.84
2018-03-28T11:04:03.101Z,979.76
2018-03-28T11:05:03.283Z,979.72
2018-03-28T11:06:03.603Z,979.72
2018-03-28T11:07:06.882Z,979.69
2018-03-28T11:08:05.768Z,979.71
2018-03-28T11:09:05.117Z,979.73
2018-03-28T11:10:04.271Z,979.75
2018-03-28T11:11:04.356Z,979.71
2018-03-28T11:12:04.523Z,979.66
2018-03-28T11:13:06.716Z,979.69
2018-03-28T11:14:05.788Z,979.68
2018-03-28T11:15:05.622Z,979.66
2018-03-28T11:16:05.981Z,979.65
2018-03-28T11:17:05.821Z,979.71
2018-03-28T11:18:05.970Z,979.74
2018-03-28T11:19:06.500Z,979.73
2018-03-28T11:20:06.458Z,979.76
2018-03-28T11:21:06.423Z,979.76
2018-03-28T11:22:06.996Z,979.75
2018-03-28T11:23:06.587Z,979.71
2018-03-28T11:24:07.392Z,979.72
2018-03-28T11:25:07.177Z,979.70
2018-03-28T11:26:09.177Z,979.67
2018-03-28T11:27:07.568Z,979.68
2018-03-28T11:28:08.010Z,979.69
2018-03-28T11:29:08.219Z,979.67
2018-03-28T11:30:08.706Z,979.66
2018-03-28T11:31:08.690Z,979.63
2018-03-28T11:32:08.723Z,979.66
2018-03-28T11:33:09.822Z,979.65
2018-03-28T11:34:10.544Z,979.60
2018-03-28T11:35:08.687Z,979.67
2018-03-28T11:36:09.328Z,979.63
2018-03-28T11:37:10.184Z,979.67
2018-03-28T11:38:09.682Z,979.63
2018-03-28T11:39:10.335Z,979.61
2018-03-28T11:40:11.125Z,979.68
2018-03-28T11:41:12.373Z,979.68
2018-03-28T11:42:10.902Z,979.61
2018-03-28T11:43:13.690Z,979.64
2018-03-28T11:44:12.285Z,979.60
2018-03-28T11:45:10.968Z,979.61
2018-03-28T11:46:13.777Z,979.57
2018-03-28T11:47:12.141Z,979.60
2018-03-28T11:48:15.011Z,979.55
2018-03-28T11:49:12.503Z,979.57
2018-03-28T11:50:13.281Z,979.58
2018-03-28T11:51:12.295Z,979.58
2018-03-28T11:52:12.976Z,979.57
2018-03-28T11:53:12.083Z,979.61
2018-03-28T11:54:13.160Z,979.59
2018-03-28T11:55:12.557Z,979.63
2018-03-28T11:56:12.175Z,979.67
2018-03-28T11:57:12.503Z,979.64
2018-03-28T11:58:11.843Z,979.63
2018-03-28T11:59:12.858Z,979.61
2018-03-28T12:00:13.310Z,979.62
2018-03-28T12:01:12.815Z,979.59
2018-03-28T12:02:12.462Z,979.58
2018-03-28T12:03:13.388Z,979.55
2018-03-28T12:04:12.820Z,979.52
2018-03-28T12:05:13.080Z,979.56
2018-03-28T12:06:13.305Z,979.57
2018-03-28T12:07:14.867Z,979.55
2018-03-28T12:08:14.390Z,979.54
2018-03-28T12:09:14.069Z,979.57
2018-03-28T12:10:14.198Z,979.55
2018-03-28T12:11:13.998Z,979.48
2018-03-28T12:12:16.520Z,979.50
2018-03-28T12:13:15.775Z,979.47
2018-03-28T12:14:15.310Z,979.51
2018-03-28T12:15:15.971Z,979.45
2018-03-28T12:16:16.206Z,979.36
2018-03-28T12:17:17.279Z,979.35
2018-03-28T12:18:17.296Z,979.32
2018-03-28T12:19:15.998Z,979.32
2018-03-28T12:20:17.289Z,979.35
2018-03-28T12:21:19.485Z,979.35
2018-03-28T12:22:16.805Z,979.35
2018-03-28T12:23:16.600Z,979.32
2018-03-28T12:24:17.113Z,979.34
2018-03-28T12:25:18.145Z,979.26
2018-03-28T12:26:19.273Z,979.23
2018-03-28T12:27:17.252Z,979.16
2018-03-28T12:28:18.925Z,979.19
2018-03-28T12:29:17.765Z,979.14
2018-03-28T12:30:20.550Z,979.13